Baracoa, Cuba
Current Conditions -  °F | °C
As of 9:56 AM on Sunday 23 Nov 2014 (Local Time) from MUGM Reporting Station
Scattered Clouds Scattered Clouds  
Wind Chill: 88°   Ceiling: Unl
Heat Index: 98°   Visibility: 6mi
Dew Point: 75°   Wind: 14mph
Humidity: 65%   Direction: 80°E
Pressure: 30"   Gusts: NA
Location:  20.35°N, 74.5°W
Report Text: MUGM 231356Z 08012KT 9999 SCT025 31/24 A3000 RMK SLP158 T03110239
Loading
Personal Weather Stations






























Interactive Weather Map New forecast layout! Learn more

10-Day Weather Forecast

Advertisements
Track Severe Weather on mobile